createdAt,value
2019-01-23T00:00:34.086Z,36.03
2019-01-23T00:03:02.977Z,36.63
2019-01-23T00:05:32.807Z,40.40
2019-01-23T00:08:01.221Z,38.17
2019-01-23T00:10:29.960Z,37.70
2019-01-23T00:12:58.645Z,38.65
2019-01-23T00:15:27.323Z,38.67
2019-01-23T00:17:55.722Z,38.45
2019-01-23T00:20:24.398Z,37.67
2019-01-23T00:22:52.810Z,38.02
2019-01-23T00:25:21.204Z,37.28
2019-01-23T00:27:49.587Z,36.38
2019-01-23T00:30:18.234Z,38.65
2019-01-23T00:32:46.629Z,38.70
2019-01-23T00:35:15.024Z,37.73
2019-01-23T00:37:44.068Z,38.55
2019-01-23T00:40:16.875Z,38.50
2019-01-23T00:42:45.740Z,39.03
2019-01-23T00:45:16.168Z,37.42
2019-01-23T00:47:44.954Z,36.28
2019-01-23T00:50:15.156Z,38.35
2019-01-23T00:52:44.029Z,40.28
2019-01-23T00:55:16.201Z,38.65
2019-01-23T00:57:44.924Z,37.17
2019-01-23T01:00:29.809Z,37.35
2019-01-23T01:02:58.451Z,34.95
2019-01-23T01:05:27.783Z,38.10
2019-01-23T01:07:56.196Z,36.35
2019-01-23T01:10:24.947Z,35.70
2019-01-23T01:12:53.737Z,38.10
2019-01-23T01:15:22.536Z,37.13
2019-01-23T01:17:50.990Z,37.38
2019-01-23T01:20:19.469Z,36.93
2019-01-23T01:22:48.167Z,37.30
2019-01-23T01:25:18.705Z,36.70
2019-01-23T01:27:47.097Z,36.63
2019-01-23T01:30:20.653Z,35.70
2019-01-23T01:32:49.060Z,34.50
2019-01-23T01:35:17.462Z,36.63
2019-01-23T01:37:45.874Z,35.55
2019-01-23T01:40:16.718Z,35.75
2019-01-23T01:42:45.409Z,35.30
2019-01-23T01:45:15.790Z,36.00
2019-01-23T01:47:44.266Z,35.10
2019-01-23T01:50:18.185Z,34.53
2019-01-23T01:52:46.830Z,33.33
2019-01-23T01:55:15.292Z,33.90
2019-01-23T01:57:43.690Z,32.58
2019-01-23T02:00:17.832Z,34.65
2019-01-23T02:02:46.306Z,30.62
2019-01-23T02:05:15.244Z,30.65
2019-01-23T02:07:43.901Z,32.58
2019-01-23T02:10:15.206Z,30.65
2019-01-23T02:12:43.745Z,34.03
2019-01-23T02:15:13.898Z,30.45
2019-01-23T02:17:42.569Z,31.75
2019-01-23T02:20:14.023Z,32.03
2019-01-23T02:22:42.420Z,32.03
2019-01-23T02:25:11.344Z,31.45
2019-01-23T02:27:39.796Z,32.98
2019-01-23T02:30:16.891Z,31.00
2019-01-23T02:32:45.376Z,31.65
2019-01-23T02:35:13.853Z,31.85
2019-01-23T02:37:42.545Z,30.75
2019-01-23T02:40:14.517Z,30.62
2019-01-23T02:42:43.195Z,30.10
2019-01-23T02:45:12.103Z,29.98
2019-01-23T02:47:40.510Z,29.60
2019-01-23T02:50:10.830Z,29.95
2019-01-23T02:52:39.396Z,30.17
2019-01-23T02:55:11.983Z,31.55
2019-01-23T02:57:40.741Z,28.47
2019-01-23T03:00:12.189Z,30.85
2019-01-23T03:02:40.767Z,30.12
2019-01-23T03:05:12.632Z,31.02
2019-01-23T03:07:41.042Z,31.07
2019-01-23T03:10:12.668Z,31.00
2019-01-23T03:12:41.455Z,29.82
2019-01-23T03:15:12.296Z,30.17
2019-01-23T03:17:40.764Z,29.10
2019-01-23T03:20:12.140Z,32.53
2019-01-23T03:22:40.604Z,32.63
2019-01-23T03:25:11.031Z,30.37
2019-01-23T03:27:39.435Z,29.60
2019-01-23T03:30:11.059Z,28.42
2019-01-23T03:32:39.449Z,30.37
2019-01-23T03:35:09.972Z,32.30
2019-01-23T03:37:38.385Z,31.77
2019-01-23T03:40:10.117Z,32.60
2019-01-23T03:42:38.524Z,31.30
2019-01-23T03:45:09.841Z,30.20
2019-01-23T03:47:38.534Z,31.23
2019-01-23T03:50:09.986Z,31.70
2019-01-23T03:52:38.387Z,30.97
2019-01-23T03:55:09.031Z,30.40
2019-01-23T03:57:37.639Z,31.73
2019-01-23T04:00:11.775Z,31.35
2019-01-23T04:02:40.416Z,31.65
2019-01-23T04:05:11.162Z,30.70
2019-01-23T04:07:39.929Z,31.05
2019-01-23T04:10:11.655Z,31.52
2019-01-23T04:12:40.557Z,30.65
2019-01-23T04:15:11.521Z,31.00
2019-01-23T04:17:39.983Z,32.38
2019-01-23T04:20:14.495Z,30.25
2019-01-23T04:22:43.074Z,32.45
2019-01-23T04:25:11.992Z,30.80
2019-01-23T04:27:40.395Z,32.85
2019-01-23T04:30:15.056Z,32.50
2019-01-23T04:32:43.471Z,30.48
2019-01-23T04:35:12.061Z,30.20
2019-01-23T04:37:40.460Z,33.02
2019-01-23T04:40:11.612Z,32.83
2019-01-23T04:42:40.011Z,29.37
2019-01-23T04:45:11.728Z,29.57
2019-01-23T04:47:40.120Z,29.15
2019-01-23T04:50:13.986Z,28.98
2019-01-23T04:52:44.019Z,29.42
2019-01-23T04:55:12.487Z,30.10
2019-01-23T04:57:41.164Z,31.30
2019-01-23T05:00:14.318Z,30.30
2019-01-23T05:02:42.714Z,31.90
2019-01-23T05:05:11.753Z,31.70
2019-01-23T05:07:40.160Z,29.95
2019-01-23T05:10:09.092Z,30.55
2019-01-23T05:12:37.499Z,31.87
2019-01-23T05:15:08.192Z,29.50
2019-01-23T05:17:36.600Z,31.77
2019-01-23T05:20:08.038Z,31.97
2019-01-23T05:22:36.454Z,29.60
2019-01-23T05:25:06.708Z,32.33
2019-01-23T05:27:35.113Z,31.37
2019-01-23T05:30:04.799Z,29.70
2019-01-23T05:32:33.191Z,30.30
2019-01-23T05:35:01.599Z,31.95
2019-01-23T05:37:29.995Z,31.20
2019-01-23T05:39:58.685Z,29.00
2019-01-23T05:42:27.347Z,29.75
2019-01-23T05:44:55.819Z,31.40
2019-01-23T05:47:24.296Z,31.77
2019-01-23T05:49:52.764Z,31.42
2019-01-23T05:52:21.205Z,32.15
2019-01-23T05:54:49.625Z,31.65
2019-01-23T05:57:18.016Z,34.13
2019-01-23T05:59:46.402Z,32.30
2019-01-23T06:02:14.805Z,32.00
2019-01-23T06:04:43.205Z,31.80
2019-01-23T06:07:11.610Z,33.83
2019-01-23T06:09:40.012Z,32.63
2019-01-23T06:12:08.421Z,33.53
2019-01-23T06:14:36.826Z,31.40
2019-01-23T06:17:05.277Z,32.13
2019-01-23T06:19:33.760Z,32.40
2019-01-23T06:22:02.437Z,32.50
2019-01-23T06:24:30.817Z,32.90
2019-01-23T06:26:59.210Z,32.60
2019-01-23T06:29:28.190Z,35.17
2019-01-23T06:31:56.875Z,33.65
2019-01-23T06:34:25.266Z,34.65
2019-01-23T06:36:53.681Z,33.00
2019-01-23T06:39:22.076Z,34.63
2019-01-23T06:41:50.472Z,35.20
2019-01-23T06:44:18.897Z,33.50
2019-01-23T06:46:47.555Z,32.67
2019-01-23T06:49:15.975Z,34.60
2019-01-23T06:51:44.365Z,34.23
2019-01-23T06:54:12.922Z,34.70
2019-01-23T06:56:41.585Z,35.65
2019-01-23T06:59:09.995Z,33.18
2019-01-23T07:01:38.395Z,32.40
2019-01-23T07:04:06.784Z,32.13
2019-01-23T07:06:35.208Z,33.13
2019-01-23T07:09:05.519Z,33.75
2019-01-23T07:11:34.208Z,33.15
2019-01-23T07:14:02.615Z,33.00
2019-01-23T07:16:31.026Z,31.85
2019-01-23T07:18:59.575Z,30.60
2019-01-23T07:21:28.342Z,32.28
2019-01-23T07:23:57.462Z,31.48
2019-01-23T07:26:26.006Z,32.05
2019-01-23T07:28:54.626Z,32.50
2019-01-23T07:31:23.036Z,32.70
2019-01-23T07:33:51.768Z,32.13
2019-01-23T07:36:20.166Z,32.78
2019-01-23T07:38:48.835Z,33.92
2019-01-23T07:41:17.736Z,30.82
2019-01-23T07:43:46.139Z,31.35
2019-01-23T07:46:15.104Z,29.55
2019-01-23T07:48:43.488Z,31.90
2019-01-23T07:51:11.902Z,32.55
2019-01-23T07:53:40.343Z,31.80
2019-01-23T07:56:08.833Z,30.72
2019-01-23T07:58:37.244Z,31.95
2019-01-23T08:01:05.637Z,30.70
2019-01-23T08:03:34.259Z,30.85
2019-01-23T08:06:02.676Z,29.23
2019-01-23T08:08:31.077Z,32.85
2019-01-23T08:10:59.468Z,32.75
2019-01-23T08:13:28.025Z,31.60
2019-01-23T08:15:56.418Z,29.90
2019-01-23T08:18:24.826Z,31.27
2019-01-23T08:20:53.532Z,29.57
2019-01-23T08:23:22.356Z,28.80
2019-01-23T08:25:50.795Z,30.48
2019-01-23T08:28:19.137Z,30.02
2019-01-23T08:30:47.866Z,30.17
2019-01-23T08:33:16.557Z,30.45
2019-01-23T08:35:45.243Z,29.87
2019-01-23T08:38:14.024Z,29.75
2019-01-23T08:40:42.416Z,30.05
2019-01-23T08:43:11.195Z,29.10
2019-01-23T08:45:39.884Z,29.20
2019-01-23T08:48:08.281Z,34.63
2019-01-23T08:50:39.019Z,30.10
2019-01-23T08:53:07.686Z,32.60
2019-01-23T08:55:36.366Z,28.47
2019-01-23T08:58:05.706Z,31.12
2019-01-23T09:00:34.455Z,28.60
2019-01-23T09:03:02.957Z,28.52
2019-01-23T09:05:31.436Z,30.10
2019-01-23T09:08:00.102Z,30.77
2019-01-23T09:10:29.944Z,31.17
2019-01-23T09:12:58.711Z,30.45
2019-01-23T09:15:27.141Z,31.62
2019-01-23T09:17:55.872Z,31.30
2019-01-23T09:20:24.637Z,28.00
2019-01-23T09:22:53.050Z,27.67
2019-01-23T09:25:26.772Z,31.23
2019-01-23T09:27:55.537Z,30.90
2019-01-23T09:30:27.058Z,31.07
2019-01-23T09:33:18.203Z,30.70
2019-01-23T09:35:58.439Z,27.40
2019-01-23T09:38:35.997Z,28.38
2019-01-23T09:41:07.440Z,30.60
2019-01-23T09:43:56.710Z,30.60
2019-01-23T09:46:34.106Z,28.80
2019-01-23T09:49:08.580Z,29.50
2019-01-23T09:51:40.022Z,28.47
2019-01-23T09:54:11.549Z,28.60
2019-01-23T09:56:42.296Z,29.40
2019-01-23T09:59:11.004Z,28.57
2019-01-23T10:01:39.505Z,29.85
2019-01-23T10:04:08.198Z,29.07
2019-01-23T10:06:36.616Z,28.60
2019-01-23T10:09:07.805Z,28.60
2019-01-23T10:11:36.262Z,29.27
2019-01-23T10:14:04.874Z,29.17
2019-01-23T10:16:33.286Z,29.00
2019-01-23T10:19:01.959Z,29.15
2019-01-23T10:21:30.749Z,27.13
2019-01-23T10:23:59.406Z,28.40
2019-01-23T10:26:27.810Z,27.57
2019-01-23T10:28:56.208Z,28.55
2019-01-23T10:31:24.593Z,29.23
2019-01-23T10:33:53.055Z,31.30
2019-01-23T10:36:21.704Z,29.80
2019-01-23T10:38:50.086Z,27.23
2019-01-23T10:41:18.474Z,29.17
2019-01-23T10:43:46.880Z,28.83
2019-01-23T10:46:15.266Z,28.77
2019-01-23T10:48:43.908Z,29.40
2019-01-23T10:51:12.700Z,30.63
2019-01-23T10:53:41.088Z,28.87
2019-01-23T10:56:09.488Z,33.67
2019-01-23T10:58:38.247Z,27.40
2019-01-23T11:01:13.212Z,28.57
2019-01-23T11:03:36.881Z,28.63
2019-01-23T11:06:05.611Z,29.63
2019-01-23T11:08:34.319Z,27.40
2019-01-23T11:11:03.383Z,27.10
2019-01-23T11:13:31.902Z,26.10
2019-01-23T11:16:00.379Z,29.20
2019-01-23T11:18:29.072Z,29.17
2019-01-23T11:20:57.466Z,27.67
2019-01-23T11:23:25.850Z,25.70
2019-01-23T11:25:54.320Z,31.03
2019-01-23T11:28:23.395Z,29.83
2019-01-23T11:30:52.085Z,26.60
2019-01-23T11:33:20.709Z,35.83
2019-01-23T11:35:49.100Z,28.30
2019-01-23T11:38:17.650Z,27.07
2019-01-23T11:40:46.130Z,29.00
2019-01-23T11:43:14.528Z,29.70
2019-01-23T11:45:43.147Z,28.93
2019-01-23T11:48:11.616Z,28.57
2019-01-23T11:50:40.240Z,29.47
2019-01-23T11:53:08.720Z,31.03
2019-01-23T11:55:37.105Z,32.80
2019-01-23T11:58:05.862Z,30.73
2019-01-23T12:00:36.523Z,31.03
2019-01-23T12:03:06.028Z,33.93
2019-01-23T12:05:34.692Z,51.03
2019-01-23T12:08:03.404Z,36.17
2019-01-23T12:10:32.194Z,29.27
2019-01-23T12:13:00.580Z,31.03
2019-01-23T12:15:28.977Z,30.77
2019-01-23T12:17:57.633Z,32.20
2019-01-23T12:20:26.090Z,31.87
2019-01-23T12:22:54.802Z,27.70
2019-01-23T12:25:23.186Z,28.00
2019-01-23T12:27:51.574Z,28.30
2019-01-23T12:30:32.226Z,28.97
2019-01-23T12:33:00.911Z,36.33
2019-01-23T12:35:29.694Z,27.17
2019-01-23T12:37:58.327Z,27.03
2019-01-23T12:40:26.978Z,28.57
2019-01-23T12:42:55.963Z,29.67
2019-01-23T12:45:27.332Z,28.27
2019-01-23T12:47:55.704Z,33.93
2019-01-23T12:50:27.038Z,29.80
2019-01-23T12:52:55.415Z,27.33
2019-01-23T12:55:24.204Z,25.60
2019-01-23T12:57:52.639Z,26.43
2019-01-23T13:00:26.195Z,26.70
2019-01-23T13:02:55.185Z,26.07
2019-01-23T13:05:24.278Z,27.17
2019-01-23T13:07:53.146Z,28.20
2019-01-23T13:10:23.940Z,26.50
2019-01-23T13:12:53.824Z,26.93
2019-01-23T13:15:24.452Z,27.77
2019-01-23T13:17:53.484Z,25.50
2019-01-23T13:20:23.836Z,25.63
2019-01-23T13:22:52.572Z,27.20
2019-01-23T13:25:24.109Z,28.30
2019-01-23T13:27:52.574Z,26.80
2019-01-23T13:30:23.735Z,26.43
2019-01-23T13:32:52.198Z,25.93
2019-01-23T13:35:23.796Z,26.50
2019-01-23T13:37:52.173Z,27.10
2019-01-23T13:40:26.580Z,26.20
2019-01-23T13:42:55.256Z,26.00
2019-01-23T13:45:23.717Z,25.03
2019-01-23T13:47:52.366Z,26.27
2019-01-23T13:50:21.106Z,25.03
2019-01-23T13:52:49.499Z,26.03
2019-01-23T13:55:21.447Z,26.50
2019-01-23T13:57:49.969Z,27.47
2019-01-23T14:00:23.984Z,26.93
2019-01-23T14:02:52.371Z,26.50
2019-01-23T14:05:20.758Z,27.83
2019-01-23T14:07:49.168Z,24.50
2019-01-23T14:10:22.640Z,27.20
2019-01-23T14:12:51.047Z,26.67
2019-01-23T14:15:37.153Z,27.80
2019-01-23T14:18:06.492Z,25.87
2019-01-23T14:20:34.960Z,27.13
2019-01-23T14:23:03.824Z,26.60
2019-01-23T14:25:32.519Z,28.83
2019-01-23T14:28:01.031Z,28.37
2019-01-23T14:30:37.979Z,29.00
2019-01-23T14:33:06.449Z,27.33
2019-01-23T14:35:36.186Z,27.80
2019-01-23T14:38:05.943Z,28.30
2019-01-23T14:40:35.078Z,28.10
2019-01-23T14:43:03.968Z,27.60
2019-01-23T14:45:32.349Z,25.17
2019-01-23T14:48:00.734Z,26.37
2019-01-23T14:50:29.226Z,26.00
2019-01-23T14:52:57.644Z,25.70
2019-01-23T14:55:26.730Z,27.90
2019-01-23T14:57:55.190Z,26.10
2019-01-23T15:00:29.265Z,27.10
2019-01-23T15:02:57.801Z,26.63
2019-01-23T15:05:26.489Z,27.03
2019-01-23T15:07:54.938Z,28.03
2019-01-23T15:10:28.821Z,24.97
2019-01-23T15:12:57.526Z,27.47
2019-01-23T15:15:26.010Z,26.43
2019-01-23T15:17:55.424Z,27.97
2019-01-23T15:20:29.898Z,26.73
2019-01-23T15:22:58.703Z,28.30
2019-01-23T15:25:27.379Z,25.40
2019-01-23T15:27:56.010Z,26.00
2019-01-23T15:30:25.128Z,26.63
2019-01-23T15:32:53.696Z,26.40
2019-01-23T15:35:22.446Z,27.10
2019-01-23T15:37:51.144Z,26.07
2019-01-23T15:40:25.051Z,25.37
2019-01-23T15:42:53.465Z,27.17
2019-01-23T15:45:22.192Z,27.13
2019-01-23T15:47:52.231Z,27.40
2019-01-23T15:50:24.074Z,26.87
2019-01-23T15:52:52.513Z,26.27
2019-01-23T15:55:22.943Z,28.97
2019-01-23T15:57:52.449Z,25.33
2019-01-23T16:00:29.304Z,26.57
2019-01-23T16:02:57.780Z,25.57
2019-01-23T16:05:26.307Z,25.33
2019-01-23T16:07:56.143Z,25.85
2019-01-23T16:10:28.835Z,26.43
2019-01-23T16:12:57.237Z,25.35
2019-01-23T16:15:28.676Z,25.23
2019-01-23T16:17:57.547Z,24.75
2019-01-23T16:20:26.763Z,26.00
2019-01-23T16:22:55.477Z,26.80
2019-01-23T16:25:23.914Z,26.00
2019-01-23T16:27:52.407Z,28.00
2019-01-23T16:30:29.513Z,24.43
2019-01-23T16:32:57.922Z,23.30
2019-01-23T16:35:26.376Z,24.40
2019-01-23T16:37:55.171Z,26.37
2019-01-23T16:40:23.566Z,25.80
2019-01-23T16:42:52.304Z,26.23
2019-01-23T16:45:22.634Z,26.93
2019-01-23T16:47:51.374Z,24.35
2019-01-23T16:50:22.775Z,25.50
2019-01-23T16:52:51.469Z,24.63
2019-01-23T16:55:20.017Z,24.37
2019-01-23T16:57:49.441Z,24.05
2019-01-23T17:00:21.131Z,24.47
2019-01-23T17:02:49.526Z,24.90
2019-01-23T17:05:21.745Z,24.83
2019-01-23T17:07:50.225Z,24.73
2019-01-23T17:10:21.746Z,26.10
2019-01-23T17:12:50.410Z,25.27
2019-01-23T17:15:19.153Z,23.40
2019-01-23T17:17:47.618Z,25.08
2019-01-23T17:20:34.471Z,26.00
2019-01-23T17:23:02.863Z,25.80
2019-01-23T17:25:31.603Z,26.63
2019-01-23T17:28:00.398Z,25.77
2019-01-23T17:30:29.400Z,26.10
2019-01-23T17:32:57.864Z,26.40
2019-01-23T17:35:26.290Z,24.80
2019-01-23T17:37:54.750Z,25.00
2019-01-23T17:40:25.246Z,25.47
2019-01-23T17:42:53.971Z,25.40
2019-01-23T17:45:38.602Z,26.87
2019-01-23T17:48:09.842Z,25.13
2019-01-23T17:50:38.262Z,26.07
2019-01-23T17:53:07.104Z,24.40
2019-01-23T17:55:37.869Z,24.67
2019-01-23T17:58:09.010Z,25.53
2019-01-23T18:00:39.149Z,24.63
2019-01-23T18:03:07.653Z,26.53
2019-01-23T18:05:36.402Z,27.07
2019-01-23T18:08:05.702Z,26.13
2019-01-23T18:10:34.243Z,27.50
2019-01-23T18:13:02.677Z,26.55
2019-01-23T18:15:37.397Z,24.65
2019-01-23T18:18:07.696Z,24.40
2019-01-23T18:20:36.408Z,23.83
2019-01-23T18:23:05.699Z,26.30
2019-01-23T18:25:34.434Z,26.87
2019-01-23T18:28:02.836Z,25.60
2019-01-23T18:30:52.334Z,25.10
2019-01-23T18:33:23.799Z,25.07
2019-01-23T18:36:10.913Z,25.77
2019-01-23T18:38:42.491Z,26.68
2019-01-23T18:41:22.486Z,25.47
2019-01-23T18:44:06.158Z,24.80
2019-01-23T18:46:58.936Z,25.93
2019-01-23T18:49:36.404Z,26.87
2019-01-23T18:52:08.062Z,27.07
2019-01-23T18:54:36.558Z,26.25
2019-01-23T18:57:06.399Z,25.12
2019-01-23T18:59:34.951Z,27.60
2019-01-23T19:02:03.346Z,26.37
2019-01-23T19:04:32.032Z,27.27
2019-01-23T19:07:00.515Z,25.97
2019-01-23T19:09:29.177Z,27.85
2019-01-23T19:11:57.849Z,25.55
2019-01-23T19:14:26.541Z,26.60
2019-01-23T19:16:55.054Z,23.20
2019-01-23T19:19:23.526Z,27.03
2019-01-23T19:21:55.103Z,25.10
2019-01-23T19:24:22.271Z,27.03
2019-01-23T19:26:50.860Z,27.23
2019-01-23T19:29:19.268Z,28.80
2019-01-23T19:31:47.703Z,27.75
2019-01-23T19:34:16.185Z,26.37
2019-01-23T19:36:44.666Z,25.43
2019-01-23T19:39:14.117Z,27.00
2019-01-23T19:41:42.526Z,26.77
2019-01-23T19:44:10.914Z,26.70
2019-01-23T19:46:39.365Z,25.93
2019-01-23T19:49:08.142Z,27.00
2019-01-23T19:51:36.578Z,25.60
2019-01-23T19:54:05.697Z,25.43
2019-01-23T19:56:34.160Z,26.87
2019-01-23T19:59:02.591Z,26.97
2019-01-23T20:01:31.301Z,26.60
2019-01-23T20:03:59.695Z,27.23
2019-01-23T20:06:28.085Z,27.57
2019-01-23T20:08:57.124Z,29.35
2019-01-23T20:11:25.555Z,33.63
2019-01-23T20:13:54.035Z,30.00
2019-01-23T20:16:22.448Z,29.23
2019-01-23T20:18:51.461Z,28.53
2019-01-23T20:21:20.148Z,26.62
2019-01-23T20:23:48.617Z,27.50
2019-01-23T20:26:17.084Z,26.33
2019-01-23T20:28:45.909Z,27.58
2019-01-23T20:31:14.336Z,27.50
2019-01-23T20:33:42.891Z,27.93
2019-01-23T20:36:11.315Z,24.45
2019-01-23T20:38:39.723Z,26.65
2019-01-23T20:41:08.174Z,27.80
2019-01-23T20:43:36.583Z,25.88
2019-01-23T20:46:05.424Z,27.30
2019-01-23T20:48:33.839Z,26.87
2019-01-23T20:51:02.308Z,25.57
2019-01-23T20:53:30.807Z,26.43
2019-01-23T20:55:59.419Z,26.93
2019-01-23T20:58:27.862Z,27.35
2019-01-23T21:00:56.339Z,27.02
2019-01-23T21:03:24.875Z,26.90
2019-01-23T21:05:53.320Z,27.23
2019-01-23T21:08:22.271Z,29.00
2019-01-23T21:10:50.724Z,26.13
2019-01-23T21:13:19.118Z,30.00
2019-01-23T21:15:47.502Z,31.20
2019-01-23T21:18:15.934Z,31.80
2019-01-23T21:20:44.664Z,30.67
2019-01-23T21:23:13.074Z,30.03
2019-01-23T21:25:41.572Z,31.02
2019-01-23T21:28:10.182Z,28.47
2019-01-23T21:30:38.780Z,29.27
2019-01-23T21:33:07.176Z,29.83
2019-01-23T21:35:35.865Z,29.70
2019-01-23T21:38:04.826Z,31.10
2019-01-23T21:40:33.599Z,31.77
2019-01-23T21:43:02.842Z,30.37
2019-01-23T21:45:31.601Z,28.73
2019-01-23T21:48:00.023Z,30.50
2019-01-23T21:50:28.755Z,27.22
2019-01-23T21:52:57.163Z,28.85
2019-01-23T21:55:25.726Z,31.00
2019-01-23T21:57:54.608Z,30.80
2019-01-23T22:00:34.504Z,30.45
2019-01-23T22:03:05.090Z,30.10
2019-01-23T22:05:33.485Z,30.32
2019-01-23T22:08:02.087Z,30.12
2019-01-23T22:10:30.731Z,30.10
2019-01-23T22:12:59.424Z,31.27
2019-01-23T22:15:30.162Z,32.73
2019-01-23T22:17:58.554Z,32.58
2019-01-23T22:20:27.356Z,35.17
2019-01-23T22:22:55.813Z,35.98
2019-01-23T22:25:25.654Z,33.33
2019-01-23T22:27:54.495Z,35.87
2019-01-23T22:30:31.618Z,35.57
2019-01-23T22:33:00.197Z,34.50
2019-01-23T22:35:28.899Z,35.13
2019-01-23T22:37:57.548Z,34.63
2019-01-23T22:40:26.399Z,34.43
2019-01-23T22:42:54.802Z,34.83
2019-01-23T22:45:23.604Z,35.30
2019-01-23T22:47:52.000Z,34.40
2019-01-23T22:50:23.443Z,36.53
2019-01-23T22:52:52.272Z,33.53
2019-01-23T22:55:21.127Z,35.03
2019-01-23T22:57:49.694Z,34.27
2019-01-23T23:00:43.076Z,31.95
2019-01-23T23:03:14.043Z,36.10
2019-01-23T23:05:42.432Z,35.33
2019-01-23T23:08:11.277Z,37.03
2019-01-23T23:10:40.175Z,35.25
2019-01-23T23:13:08.745Z,32.28
2019-01-23T23:15:37.355Z,33.58
2019-01-23T23:18:06.427Z,35.53
2019-01-23T23:20:34.922Z,32.67
2019-01-23T23:23:03.386Z,38.15
2019-01-23T23:25:32.386Z,34.40
2019-01-23T23:28:01.686Z,35.35
2019-01-23T23:30:30.624Z,35.80
2019-01-23T23:32:59.328Z,34.40
2019-01-23T23:35:27.878Z,38.05
2019-01-23T23:37:56.272Z,35.33
2019-01-23T23:40:25.015Z,33.95
2019-01-23T23:42:53.493Z,37.10
2019-01-23T23:45:22.398Z,37.08
2019-01-23T23:47:51.075Z,35.48
2019-01-23T23:50:19.649Z,38.60
2019-01-23T23:52:48.320Z,37.10
2019-01-23T23:55:17.476Z,34.85
2019-01-23T23:57:46.324Z,37.20
